Time;durP1;ratioP1;P1;durP2;ratioP2;P2;SDS_P1;SDS_P2;PMS_P1;PMS_P2;Temp;Humidity;BMP_temperature;BMP_pressure;BME280_temperature;BME280_humidity;BME280_pressure;Samples;Min_cycle;Max_cycle;Signal;HPM_P1;HPM_P2
2024/02/16 00:01:04;;;;;;;65.85;36.45;;;128.70;2252.80;;;;;;5086919;28;20055;-70
2024/02/16 00:03:31;;;;;;;72.20;37.22;;;128.60;2252.80;;;;;;5081548;28;20040;-73
2024/02/16 00:05:56;;;;;;;67.20;35.53;;;128.60;2252.80;;;;;;5067372;28;20494;-70
2024/02/16 00:08:22;;;;;;;74.85;37.47;;;128.40;2252.80;;;;;;5084035;28;20036;-71
2024/02/16 00:10:48;;;;;;;73.22;36.85;;;128.30;2252.80;;;;;;5087816;28;20016;-70
2024/02/16 00:13:14;;;;;;;73.10;35.92;;;128.20;2252.80;;;;;;5088664;28;20040;-69
2024/02/16 00:15:40;;;;;;;73.43;37.15;;;128.10;2252.80;;;;;;5085848;28;20027;-70
2024/02/16 00:18:06;;;;;;;73.85;37.22;;;128.10;2252.80;;;;;;5086276;28;20037;-69
2024/02/16 00:20:32;;;;;;;70.50;35.35;;;128.10;2252.80;;;;;;5085162;28;20051;-70
2024/02/16 00:22:58;;;;;;;69.38;35.90;;;128.10;2252.80;;;;;;5063883;28;20032;-69
2024/02/16 00:25:24;;;;;;;75.03;37.72;;;128.00;2252.80;;;;;;5078337;28;20028;-70
2024/02/16 00:27:52;;;;;;;71.85;35.33;;;128.00;2252.80;;;;;;5089520;28;20125;-70
2024/02/16 00:30:19;;;;;;;69.97;36.00;;;128.00;2252.80;;;;;;5063547;28;20020;-70
2024/02/16 00:32:45;;;;;;;64.70;34.72;;;128.10;2252.80;;;;;;5059032;28;20040;-70
2024/02/16 00:35:12;;;;;;;67.93;35.05;;;128.10;2252.80;;;;;;5077901;28;20039;-69
2024/02/16 00:37:38;;;;;;;62.92;34.42;;;128.30;2252.80;;;;;;5051986;28;20090;-70
2024/02/16 00:40:06;;;;;;;67.47;34.65;;;128.20;2252.80;;;;;;5072359;28;20028;-71
2024/02/16 00:42:32;;;;;;;65.55;34.67;;;128.20;2252.80;;;;;;5087446;28;20419;-71
2024/02/16 00:45:00;;;;;;;64.07;33.28;;;128.20;2252.80;;;;;;5088197;28;20470;-70
2024/02/16 00:47:27;;;;;;;65.43;34.45;;;128.20;2252.80;;;;;;5088235;28;20040;-70
2024/02/16 00:49:52;;;;;;;68.47;34.35;;;128.20;2252.80;;;;;;5076987;28;20417;-70
2024/02/16 00:52:18;;;;;;;68.10;33.35;;;128.10;2252.80;;;;;;5081746;28;20032;-70
2024/02/16 00:54:44;;;;;;;67.95;34.50;;;128.10;2252.80;;;;;;5085382;28;20039;-70
2024/02/16 00:57:09;;;;;;;66.47;34.03;;;128.10;2252.80;;;;;;5085799;28;20490;-71
2024/02/16 00:59:35;;;;;;;64.15;33.20;;;128.00;2252.80;;;;;;5082206;28;20483;-71
2024/02/16 01:02:01;;;;;;;64.70;32.50;;;128.00;2252.80;;;;;;5081411;28;20488;-70
2024/02/16 01:04:26;;;;;;;62.70;32.80;;;128.00;2252.80;;;;;;5081295;28;20549;-71
2024/02/16 01:06:52;;;;;;;66.60;33.83;;;103.30;2227.20;;;;;;5080115;28;20067;-70
2024/02/16 01:09:18;;;;;;;66.97;34.88;;;103.30;2227.20;;;;;;5082058;28;20363;-71
2024/02/16 01:11:43;;;;;;;66.25;35.72;;;103.30;2227.20;;;;;;5087902;28;20059;-70
2024/02/16 01:14:09;;;;;;;69.57;36.45;;;128.10;2252.80;;;;;;5101907;28;20031;-70
2024/02/16 01:16:35;;;;;;;75.55;38.60;;;103.20;2227.20;;;;;;5111593;28;20070;-71
2024/02/16 01:19:01;;;;;;;77.90;39.15;;;;;;;;;;5098857;28;20023;-70
2024/02/16 01:21:27;;;;;;;79.65;39.35;;;103.20;2227.20;;;;;;5087284;28;20067;-71
2024/02/16 01:23:53;;;;;;;75.22;38.75;;;103.10;2227.20;;;;;;5090511;28;20447;-71
2024/02/16 01:26:19;;;;;;;77.90;38.90;;;103.00;2227.20;;;;;;5089058;28;20044;-71
2024/02/16 01:28:44;;;;;;;77.95;40.17;;;102.90;2227.20;;;;;;5092394;28;20024;-71
2024/02/16 01:31:10;;;;;;;79.85;39.67;;;102.90;2227.20;;;;;;5091988;28;20020;-71
2024/02/16 01:33:37;;;;;;;83.70;41.33;;;102.90;2227.20;;;;;;5092418;28;20016;-71
2024/02/16 01:36:03;;;;;;;86.40;43.90;;;103.00;2227.20;;;;;;5091479;28;20028;-71
2024/02/16 01:38:29;;;;;;;90.07;44.75;;;103.00;2227.20;;;;;;5092440;28;20080;-71
2024/02/16 01:40:54;;;;;;;83.07;42.78;;;102.90;2227.20;;;;;;5085685;28;20032;-71
2024/02/16 01:43:21;;;;;;;81.80;42.00;;;102.90;2227.20;;;;;;5087871;28;20035;-71
2024/02/16 01:45:47;;;;;;;81.38;43.90;;;102.90;2227.20;;;;;;5091987;28;20035;-71
2024/02/16 01:48:14;;;;;;;85.53;45.13;;;102.90;2227.20;;;;;;5092734;28;20383;-71
2024/02/16 01:50:43;;;;;;;93.35;46.92;;;102.90;2227.20;;;;;;5089539;28;20012;-71
2024/02/16 01:53:11;;;;;;;85.25;44.70;;;102.90;2227.20;;;;;;5062675;28;20035;-71
2024/02/16 01:55:36;;;;;;;85.57;43.45;;;102.90;2227.20;;;;;;5086325;28;21316;-71
2024/02/16 01:58:04;;;;;;;80.60;42.80;;;102.80;2227.20;;;;;;5086833;28;20028;-71
2024/02/16 02:00:30;;;;;;;85.50;43.15;;;102.70;2227.20;;;;;;5087951;28;20038;-71
2024/02/16 02:02:57;;;;;;;81.93;43.53;;;102.80;2227.20;;;;;;5077700;28;20040;-71
2024/02/16 02:05:23;;;;;;;90.25;44.33;;;102.80;2227.20;;;;;;5071531;28;20017;-71
2024/02/16 02:07:49;;;;;;;97.22;46.50;;;102.70;2227.20;;;;;;5083259;28;20044;-71
2024/02/16 02:10:14;;;;;;;84.65;43.80;;;102.70;2227.20;;;;;;5087079;28;20032;-71
2024/02/16 02:12:42;;;;;;;90.22;46.05;;;102.60;2227.20;;;;;;5081285;28;20811;-71
2024/02/16 02:15:08;;;;;;;91.00;45.25;;;;;;;;;;5070571;28;20017;-71
2024/02/16 02:17:34;;;;;;;89.28;44.03;;;;;;;;;;5071377;28;20835;-71
2024/02/16 02:20:01;;;;;;;95.97;46.95;;;;;;;;;;5090535;28;20132;-71
2024/02/16 02:22:27;;;;;;;90.28;45.58;;;;;;;;;;5089873;28;20474;-71
2024/02/16 02:24:55;;;;;;;86.43;44.83;;;;;;;;;;5085421;28;20078;-71
2024/02/16 02:27:21;;;;;;;93.05;45.75;;;;;;;;;;5088733;28;20043;-71
2024/02/16 02:29:47;;;;;;;87.32;45.83;;;;;;;;;;5090416;28;20493;-70
2024/02/16 02:32:14;;;;;;;90.85;45.28;;;;;;;;;;5083859;28;20024;-70
2024/02/16 02:34:40;;;;;;;92.05;45.67;;;;;;;;;;5070004;28;20258;-71
2024/02/16 02:37:06;;;;;;;90.57;45.13;;;;;;;;;;5078407;28;20035;-71
2024/02/16 02:39:32;;;;;;;92.07;45.40;;;;;;;;;;5076451;28;20032;-71
2024/02/16 02:41:59;;;;;;;87.85;44.63;;;;;;;;;;5073273;28;20031;-70
2024/02/16 02:44:25;;;;;;;87.97;45.65;;;;;;;;;;5085893;28;20031;-71
2024/02/16 02:46:51;;;;;;;91.57;44.58;;;102.70;2227.20;;;;;;5089844;28;20040;-70
2024/02/16 02:49:17;;;;;;;85.35;43.70;;;102.40;2227.20;;;;;;5089898;28;20031;-70
2024/02/16 02:51:43;;;;;;;89.05;44.05;;;102.40;2227.20;;;;;;5088154;28;20103;-70
2024/02/16 02:54:09;;;;;;;86.00;43.85;;;102.50;2227.20;;;;;;5089855;28;20153;-71
2024/02/16 02:56:35;;;;;;;87.20;44.65;;;77.70;2227.20;;;;;;5089489;28;20043;-70
2024/02/16 02:59:01;;;;;;;85.00;42.95;;;102.40;2227.20;;;;;;5089361;28;20027;-70
2024/02/16 03:01:26;;;;;;;79.50;41.97;;;77.70;2227.20;;;;;;5089742;28;20025;-70
2024/02/16 03:03:52;;;;;;;87.07;43.10;;;102.40;2227.20;;;;;;5070156;28;20063;-71
2024/02/16 03:06:19;;;;;;;86.85;42.17;;;77.60;2227.20;;;;;;5069012;28;20036;-70
2024/02/16 03:08:45;;;;;;;83.65;43.08;;;77.60;2227.20;;;;;;5076913;28;20027;-70
2024/02/16 03:11:11;;;;;;;83.40;42.78;;;77.60;2227.20;;;;;;5085527;28;20027;-70
2024/02/16 03:13:37;;;;;;;87.03;43.08;;;;;;;;;;5089127;28;20542;-70
2024/02/16 03:16:03;;;;;;;85.85;43.55;;;;;;;;;;5089804;28;20483;-70
2024/02/16 03:18:30;;;;;;;84.30;42.83;;;;;;;;;;5089735;28;20086;-71
2024/02/16 03:20:56;;;;;;;80.40;41.22;;;;;;;;;;5089803;28;20066;-71
2024/02/16 03:23:23;;;;;;;78.68;40.65;;;;;;;;;;5089180;28;20027;-70
2024/02/16 03:25:49;;;;;;;80.53;40.45;;;;;;;;;;5089844;28;20089;-70
2024/02/16 03:28:15;;;;;;;78.55;39.50;;;;;;;;;;5082642;28;20135;-70
2024/02/16 03:30:42;;;;;;;80.47;40.25;;;;;;;;;;5086154;28;20043;-70
2024/02/16 03:33:08;;;;;;;76.40;39.40;;;;;;;;;;5087258;28;20474;-70
2024/02/16 03:35:34;;;;;;;76.55;38.33;;;;;;;;;;5069113;28;20032;-71
2024/02/16 03:38:00;;;;;;;72.68;38.10;;;;;;;;;;5068134;28;20557;-70
2024/02/16 03:40:26;;;;;;;69.30;36.70;;;;;;;;;;5068852;28;20021;-71
2024/02/16 03:42:52;;;;;;;75.53;38.10;;;102.40;2227.20;;;;;;5068606;28;20032;-70
2024/02/16 03:45:18;;;;;;;71.95;37.03;;;77.50;2227.20;;;;;;5069691;28;20093;-71
2024/02/16 03:47:44;;;;;;;75.22;38.47;;;77.40;2227.20;;;;;;5082743;28;20185;-70
2024/02/16 03:50:10;;;;;;;72.75;37.20;;;77.30;2227.20;;;;;;5086003;28;20039;-70
2024/02/16 03:52:37;;;;;;;73.55;38.35;;;77.30;2227.20;;;;;;5082056;28;20062;-70
2024/02/16 03:55:03;;;;;;;70.57;37.33;;;77.20;2227.20;;;;;;5088273;28;20699;-70
2024/02/16 03:57:31;;;;;;;76.05;37.25;;;77.10;2227.20;;;;;;5088905;28;20049;-71
2024/02/16 03:59:57;;;;;;;72.60;36.38;;;76.90;2227.20;;;;;;5088895;28;20032;-70
2024/02/16 04:02:22;;;;;;;76.72;36.20;;;77.00;2227.20;;;;;;5088279;28;20024;-70
2024/02/16 04:04:48;;;;;;;75.10;35.38;;;76.90;2227.20;;;;;;5088681;28;20447;-70
2024/02/16 04:07:14;;;;;;;69.65;35.53;;;77.00;2227.20;;;;;;5086158;28;20067;-70
2024/02/16 04:09:40;;;;;;;68.40;35.40;;;;;;;;;;5086247;28;20036;-70
2024/02/16 04:12:06;;;;;;;71.15;34.47;;;;;;;;;;5088929;28;20122;-71
2024/02/16 04:14:33;;;;;;;67.72;34.58;;;;;;;;;;5088147;28;20071;-70
2024/02/16 04:16:59;;;;;;;67.88;33.88;;;;;;;;;;5088584;28;20503;-70
2024/02/16 04:19:29;;;;;;;63.20;32.42;;;;;;;;;;5088520;28;20474;-70
2024/02/16 04:21:55;;;;;;;61.17;32.55;;;;;;;;;;5088681;28;20032;-71
2024/02/16 04:24:21;;;;;;;62.88;32.85;;;;;;;;;;5084836;28;20482;-70
2024/02/16 04:26:48;;;;;;;61.53;31.77;;;;;;;;;;5084364;28;20451;-70
2024/02/16 04:29:14;;;;;;;57.80;30.85;;;;;;;;;;5088288;28;20024;-70
2024/02/16 04:31:42;;;;;;;63.72;33.00;;;;;;;;;;5088491;28;20074;-70
2024/02/16 04:34:08;;;;;;;65.85;33.38;;;;;;;;;;5088116;28;20024;-70
2024/02/16 04:36:34;;;;;;;65.38;32.78;;;;;;;;;;5068821;28;20021;-70
2024/02/16 04:39:01;;;;;;;75.82;37.38;;;;;;;;;;5068128;28;20029;-70
2024/02/16 04:41:27;;;;;;;75.80;35.33;;;;;;;;;;5069879;28;20140;-70
2024/02/16 04:43:53;;;;;;;64.15;31.25;;;;;;;;;;5083380;28;20020;-70
2024/02/16 04:46:19;;;;;;;58.53;30.48;;;;;;;;;;5071381;28;20036;-70
2024/02/16 04:48:45;;;;;;;55.63;29.58;;;;;;;;;;5078330;28;20538;-70
2024/02/16 04:51:12;;;;;;;62.20;29.55;;;;;;;;;;5070801;28;20043;-70
2024/02/16 04:53:38;;;;;;;55.67;28.73;;;;;;;;;;5076423;28;20035;-70
2024/02/16 04:56:04;;;;;;;57.00;29.45;;;;;;;;;;5073358;28;20056;-70
2024/02/16 04:58:31;;;;;;;60.10;30.20;;;;;;;;;;5092105;28;20031;-70
2024/02/16 05:00:57;;;;;;;66.50;30.75;;;;;;;;;;5073718;28;20442;-71
2024/02/16 05:03:24;;;;;;;59.22;29.10;;;;;;;;;;5092219;28;20103;-70
2024/02/16 05:05:50;;;;;;;60.05;27.75;;;;;;;;;;5079887;28;20791;-70
2024/02/16 05:08:16;;;;;;;55.60;28.33;;;;;;;;;;5084321;28;20047;-70
2024/02/16 05:10:42;;;;;;;55.97;28.50;;;;;;;;;;5090579;28;20020;-70
2024/02/16 05:13:08;;;;;;;56.75;27.02;;;77.00;2227.20;;;;;;5091631;28;20032;-70
2024/02/16 05:15:34;;;;;;;57.42;26.95;;;;;;;;;;5091090;28;20020;-70
2024/02/16 05:18:00;;;;;;;55.50;27.45;;;;;;;;;;5087222;28;20029;-70
2024/02/16 05:20:26;;;;;;;52.00;26.00;;;;;;;;;;5080977;28;20085;-70
2024/02/16 05:22:52;;;;;;;51.92;25.60;;;;;;;;;;5091385;28;20051;-70
2024/02/16 05:25:19;;;;;;;50.38;25.63;;;;;;;;;;5082748;28;20052;-70
2024/02/16 05:27:47;;;;;;;52.97;26.20;;;;;;;;;;5071408;28;20547;-69
2024/02/16 05:30:15;;;;;;;51.75;26.23;;;;;;;;;;5086340;28;20046;-70
2024/02/16 05:32:41;;;;;;;52.05;25.48;;;;;;;;;;5091122;28;20588;-70
2024/02/16 05:35:11;;;;;;;48.25;24.77;;;;;;;;;;5086653;28;20074;-70
2024/02/16 05:37:39;;;;;;;45.30;24.58;;;;;;;;;;5091187;28;20059;-70
2024/02/16 05:40:18;;;;;;;47.97;24.23;;;;;;;;;;5091393;28;20071;-70
2024/02/16 05:42:45;;;;;;;48.10;23.80;;;;;;;;;;5083244;28;20069;-70
2024/02/16 05:45:11;;;;;;;46.03;23.40;;;;;;;;;;5083510;28;20021;-70
2024/02/16 05:47:38;;;;;;;48.92;24.80;;;;;;;;;;5075737;28;20028;-70
2024/02/16 05:50:05;;;;;;;47.70;24.30;;;;;;;;;;5091310;28;20065;-71
2024/02/16 05:52:31;;;;;;;47.33;24.10;;;;;;;;;;5089645;28;20090;-70
2024/02/16 05:54:57;;;;;;;44.53;24.42;;;;;;;;;;5080291;28;20043;-70
2024/02/16 05:57:24;;;;;;;48.35;24.40;;;;;;;;;;5083135;28;20020;-70
2024/02/16 05:59:51;;;;;;;45.65;24.77;;;77.50;2227.20;;;;;;5088584;28;20568;-71
2024/02/16 06:02:17;;;;;;;45.22;23.20;;;77.30;2227.20;;;;;;5077072;28;20116;-71
2024/02/16 06:04:43;;;;;;;40.58;21.25;;;;;;;;;;5088279;28;20795;-71
2024/02/16 06:07:10;;;;;;;40.35;21.85;;;128.50;2252.80;;;;;;5086723;28;20043;-70
2024/02/16 06:09:37;;;;;;;43.50;21.58;;;;;;;;;;5086170;28;20032;-71
2024/02/16 06:12:07;;;;;;;39.25;20.33;;;180.10;2252.80;;;;;;5095754;28;20600;-71
2024/02/16 06:14:33;;;;;;;37.67;19.83;;;230.50;2252.80;;;;;;5086913;28;20043;-70
2024/02/16 06:16:59;;;;;;;37.00;19.75;;;281.80;2278.40;;;;;;5106860;28;20019;-71
2024/02/16 06:19:26;;;;;;;37.40;20.73;;;;;;;;;;5107548;28;20050;-69
2024/02/16 06:21:52;;;;;;;34.53;19.17;;;307.70;2304.00;;;;;;5090559;28;20023;-70
2024/02/16 06:24:18;;;;;;;34.42;20.02;;;332.80;2048.00;;;;;;5081038;28;20059;-71
2024/02/16 06:26:44;;;;;;;33.08;19.23;;;333.10;1971.20;;;;;;5087313;28;20027;-71
2024/02/16 06:29:10;;;;;;;32.70;18.80;;;333.30;1868.80;;;;;;5079879;28;20050;-70
2024/02/16 06:31:36;;;;;;;32.78;18.80;;;358.90;1843.20;;;;;;5085683;28;20036;-71
2024/02/16 06:34:03;;;;;;;32.53;17.90;;;384.90;1740.80;;;;;;5090117;28;20111;-71
2024/02/16 06:36:28;;;;;;;31.17;17.65;;;435.80;1638.40;;;;;;5090285;28;20047;-71
2024/02/16 06:38:54;;;;;;;30.02;17.70;;;436.10;1561.60;;;;;;5088226;28;20056;-71
2024/02/16 06:41:20;;;;;;;30.83;17.90;;;461.40;1536.00;;;;;;5090132;28;20032;-71
2024/02/16 06:43:45;;;;;;;31.77;17.73;;;486.40;1459.20;;;;;;5086950;28;20032;-71
2024/02/16 06:46:11;;;;;;;30.20;17.38;;;486.60;1433.60;;;;;;5085955;28;20175;-71
2024/02/16 06:48:37;;;;;;;28.27;17.38;;;487.10;1408.00;;;;;;5090169;28;20433;-70
2024/02/16 06:51:02;;;;;;;28.42;17.83;;;512.00;1382.40;;;;;;5089996;28;20497;-71
2024/02/16 06:53:28;;;;;;;31.92;17.75;;;512.80;1331.20;;;;;;5082486;28;20390;-71
2024/02/16 06:55:54;;;;;;;29.45;18.55;;;538.40;1305.60;;;;;;5088677;28;20040;-71
2024/02/16 06:58:20;;;;;;;31.00;18.60;;;563.40;1280.00;;;;;;5089555;28;20039;-71
2024/02/16 07:00:46;;;;;;;29.27;17.77;;;563.50;1254.40;;;;;;5051427;28;20032;-71
2024/02/16 07:03:12;;;;;;;40.00;18.63;;;564.00;1228.80;;;;;;5083804;28;20074;-71
2024/02/16 07:05:39;;;;;;;31.98;18.20;;;589.60;1177.60;;;;;;5090160;28;20024;-71
2024/02/16 07:08:07;;;;;;;28.70;17.77;;;563.20;1203.20;;;;;;5082455;28;20044;-71
2024/02/16 07:10:33;;;;;;;29.90;18.25;;;564.10;1203.20;;;;;;5072082;28;20024;-70
2024/02/16 07:12:59;;;;;;;37.03;22.00;;;614.50;1152.00;;;;;;5075904;28;20032;-71
2024/02/16 07:15:26;;;;;;;50.35;29.88;;;615.30;1075.20;;;;;;5089814;28;20127;-71
2024/02/16 07:17:51;;;;;;;42.22;24.55;;;640.60;1100.80;;;;;;5087890;28;20058;-71
2024/02/16 07:20:18;;;;;;;35.70;20.98;;;640.90;1024.00;;;;;;5087266;28;20448;-71
2024/02/16 07:22:46;;;;;;;34.03;20.25;;;665.60;1049.60;;;;;;5080692;28;20368;-71
2024/02/16 07:25:12;;;;;;;33.95;20.55;;;665.80;1049.60;;;;;;5088842;28;20124;-70
2024/02/16 07:27:38;;;;;;;30.83;20.08;;;666.10;1049.60;;;;;;5081021;28;20085;-71
2024/02/16 07:30:05;;;;;;;31.77;18.15;;;666.20;998.40;;;;;;5079974;28;20138;-71
2024/02/16 07:32:31;;;;;;;28.35;17.63;;;666.20;1024.00;;;;;;5084709;28;20135;-71
2024/02/16 07:34:56;;;;;;;25.23;16.77;;;665.90;1024.00;;;;;;5085089;28;20111;-73
2024/02/16 07:37:22;;;;;;;24.83;16.17;;;666.50;998.40;;;;;;5086985;28;20034;-74
2024/02/16 07:39:48;;;;;;;25.63;15.65;;;666.40;998.40;;;;;;5090645;28;20016;-72
2024/02/16 07:42:17;;;;;;;25.35;17.02;;;640.00;1049.60;;;;;;5090933;28;20032;-73
2024/02/16 07:44:43;;;;;;;24.60;16.17;;;614.80;1075.20;;;;;;5088346;28;20479;-73
2024/02/16 07:47:15;;;;;;;30.02;16.25;;;563.70;1177.60;;;;;;5088845;28;20054;-71
2024/02/16 07:49:41;;;;;;;25.40;15.65;;;563.80;1203.20;;;;;;5078454;28;20022;-71
2024/02/16 07:52:06;;;;;;;24.05;15.80;;;537.90;1228.80;;;;;;5062201;28;20103;-73
2024/02/16 07:54:32;;;;;;;26.48;16.23;;;588.90;1152.00;;;;;;5078741;28;20023;-72
2024/02/16 07:56:59;;;;;;;26.05;17.17;;;563.70;1203.20;;;;;;5088489;28;20447;-73
2024/02/16 07:59:26;;;;;;;27.48;18.00;;;564.10;1152.00;;;;;;5088615;28;20020;-74
2024/02/16 08:01:51;;;;;;;27.83;16.75;;;563.60;1177.60;;;;;;5089053;28;20028;-73
2024/02/16 08:04:17;;;;;;;25.15;15.93;;;589.40;1177.60;;;;;;5084976;28;20040;-72
2024/02/16 08:06:43;;;;;;;24.75;15.73;;;614.80;1100.80;;;;;;5090200;28;20028;-72
2024/02/16 08:09:08;;;;;;;25.40;16.13;;;589.20;1126.40;;;;;;5089221;28;20429;-73
2024/02/16 08:11:34;;;;;;;24.63;15.45;;;589.70;1126.40;;;;;;5089758;28;20379;-72
2024/02/16 08:14:00;;;;;;;24.75;14.98;;;589.50;1126.40;;;;;;5080504;28;20032;-72
2024/02/16 08:16:32;;;;;;;23.58;15.07;;;614.80;1126.40;;;;;;5085302;28;20024;-73
2024/02/16 08:18:57;;;;;;;24.55;14.63;;;640.50;1049.60;;;;;;5073709;28;20056;-71
2024/02/16 08:21:26;;;;;;;21.40;14.32;;;665.90;1049.60;;;;;;5090835;28;20066;-72
2024/02/16 08:23:52;;;;;;;21.42;14.35;;;666.20;1049.60;;;;;;5086430;28;20013;-72
2024/02/16 08:26:21;;;;;;;22.27;14.85;;;614.80;1100.80;;;;;;5088190;28;20028;-72
2024/02/16 08:28:46;;;;;;;24.27;15.25;;;614.90;1100.80;;;;;;5094678;28;20022;-72
2024/02/16 08:31:19;;;;;;;21.40;13.98;;;;;;;;;;5094156;28;20020;-71
2024/02/16 08:33:46;;;;;;;24.00;14.52;;;538.20;1254.40;;;;;;5093100;28;20487;-72
2024/02/16 08:36:15;;;;;;;23.60;15.13;;;;;;;;;;5086469;28;20073;-73
2024/02/16 08:38:41;;;;;;;20.55;13.77;;;486.50;1408.00;;;;;;5086055;28;20482;-72
2024/02/16 08:41:07;;;;;;;22.65;13.60;;;486.50;1408.00;;;;;;5095592;28;20035;-74
2024/02/16 08:43:32;;;;;;;25.13;14.25;;;487.20;1382.40;;;;;;5085899;28;20095;-73
2024/02/16 08:45:58;;;;;;;23.13;14.10;;;486.80;1382.40;;;;;;5083648;28;20028;-74
2024/02/16 08:48:26;;;;;;;21.73;13.60;;;486.70;1408.00;;;;;;5097748;28;20040;-75
2024/02/16 08:50:52;;;;;;;22.75;13.30;;;461.70;1433.60;;;;;;5086748;28;20020;-72
2024/02/16 08:53:18;;;;;;;26.70;16.00;;;436.10;1484.80;;;;;;5087705;28;20653;-72
2024/02/16 08:55:43;;;;;;;24.83;14.15;;;435.30;1536.00;;;;;;5078575;28;20045;-73
2024/02/16 08:58:09;;;;;;;22.88;13.65;;;410.20;1587.20;;;;;;5084195;28;20032;-73
2024/02/16 09:00:35;;;;;;;21.15;13.00;;;410.30;1612.80;;;;;;5080363;28;20073;-72
2024/02/16 09:03:06;;;;;;;34.22;16.60;;;410.10;1587.20;;;;;;5077237;28;20032;-72
2024/02/16 09:05:31;;;;;;;42.90;21.02;;;410.20;1587.20;;;;;;5094361;28;20098;-74
2024/02/16 09:08:00;;;;;;;23.02;13.82;;;409.70;1587.20;;;;;;5092639;28;20115;-71
2024/02/16 09:10:26;;;;;;;21.30;12.85;;;410.10;1638.40;;;;;;5090492;28;20068;-72
2024/02/16 09:12:51;;;;;;;19.95;11.00;;;409.90;1638.40;;;;;;5089128;28;20551;-72
2024/02/16 09:15:17;;;;;;;17.98;11.77;;;410.10;1638.40;;;;;;5093381;28;20137;-73
2024/02/16 09:17:43;;;;;;;18.55;11.82;;;410.10;1561.60;;;;;;5094451;28;20051;-71
2024/02/16 09:20:12;;;;;;;17.80;10.90;;;410.40;1587.20;;;;;;5092700;28;20036;-72
2024/02/16 09:22:40;;;;;;;27.50;16.60;;;410.10;1587.20;;;;;;5088814;28;20501;-72
2024/02/16 09:25:06;;;;;;;26.02;14.13;;;410.40;1561.60;;;;;;5093921;28;20059;-73
2024/02/16 09:27:32;;;;;;;18.98;11.80;;;410.10;1587.20;;;;;;5095655;28;20035;-72
2024/02/16 09:30:01;;;;;;;19.90;10.82;;;409.80;1612.80;;;;;;5094056;28;20427;-72
2024/02/16 09:32:27;;;;;;;22.10;12.30;;;409.70;1612.80;;;;;;5092486;28;20064;-72
2024/02/16 09:34:55;;;;;;;18.75;11.60;;;;;;;;;;5076254;28;20044;-73
2024/02/16 09:37:21;;;;;;;19.48;11.70;;;;;;;;;;5093872;28;20020;-73
2024/02/16 09:39:48;;;;;;;21.63;13.82;;;;;;;;;;5080089;28;20032;-72
2024/02/16 09:42:14;;;;;;;38.10;20.23;;;409.80;1920.00;;;;;;5090537;28;20032;-73
2024/02/16 09:44:43;;;;;;;18.45;11.43;;;409.80;1638.40;;;;;;5085310;28;20082;-72
2024/02/16 09:47:13;;;;;;;63.40;29.50;;;409.90;1612.80;;;;;;5095719;28;20044;-72
2024/02/16 09:49:40;;;;;;;20.90;11.75;;;409.70;1638.40;;;;;;5085482;28;20514;-72
2024/02/16 09:52:10;;;;;;;25.52;16.50;;;384.80;1638.40;;;;;;5077635;28;20424;-72
2024/02/16 09:54:36;;;;;;;20.77;13.52;;;409.70;1664.00;;;;;;5092286;28;20032;-72
2024/02/16 09:57:04;;;;;;;26.17;15.57;;;409.90;1638.40;;;;;;5094265;28;20435;-73
2024/02/16 09:59:31;;;;;;;14.75;10.13;;;435.60;1561.60;;;;;;5093515;28;20044;-73
2024/02/16 10:02:03;;;;;;;32.35;16.20;;;;;;;;;;5092366;28;20035;-74
2024/02/16 10:04:29;;;;;;;20.33;11.60;;;461.00;1510.40;;;;;;5094472;28;20101;-72
2024/02/16 10:06:57;;;;;;;17.83;10.60;;;435.60;1536.00;;;;;;5091512;28;20740;-71
2024/02/16 10:09:24;;;;;;;16.08;9.88;;;435.90;1510.40;;;;;;5090074;28;20334;-71
2024/02/16 10:11:50;;;;;;;16.55;10.40;;;461.40;1510.40;;;;;;5090908;28;20315;-74
2024/02/16 10:14:15;;;;;;;25.48;15.65;;;461.00;1510.40;;;;;;5071544;28;20490;-73
2024/02/16 10:16:41;;;;;;;22.25;14.30;;;436.10;1484.80;;;;;;5087654;28;20035;-74
2024/02/16 10:19:10;;;;;;;16.55;9.50;;;436.00;1484.80;;;;;;5090582;28;20024;-72
2024/02/16 10:21:36;;;;;;;15.13;9.20;;;461.10;1484.80;;;;;;5090004;28;20055;-73
2024/02/16 10:24:04;;;;;;;14.63;9.40;;;461.10;1484.80;;;;;;5090129;28;20455;-72
2024/02/16 10:26:30;;;;;;;16.90;10.10;;;436.10;1484.80;;;;;;5090689;28;20075;-72
2024/02/16 10:28:57;;;;;;;13.23;9.05;;;435.20;1510.40;;;;;;5090221;28;20055;-73
2024/02/16 10:31:30;;;;;;;15.43;9.20;;;436.00;1510.40;;;;;;5085820;28;20047;-71
2024/02/16 10:33:59;;;;;;;13.10;9.07;;;460.80;1484.80;;;;;;5083583;28;20012;-72
2024/02/16 10:36:28;;;;;;;21.52;13.32;;;461.30;1433.60;;;;;;5089683;28;20036;-72
2024/02/16 10:38:55;;;;;;;22.70;14.13;;;461.10;1433.60;;;;;;5074326;28;20475;-72
2024/02/16 10:41:27;;;;;;;19.75;10.32;;;461.10;1459.20;;;;;;5088695;28;20127;-73
2024/02/16 10:43:55;;;;;;;17.17;9.60;;;461.30;1459.20;;;;;;5054079;28;20112;-74
2024/02/16 10:46:22;;;;;;;14.70;9.35;;;461.20;1459.20;;;;;;5078707;28;20077;-74
2024/02/16 10:48:48;;;;;;;13.95;9.00;;;461.20;1459.20;;;;;;5083678;28;20036;-71
2024/02/16 10:51:18;;;;;;;26.50;17.17;;;461.40;1459.20;;;;;;5090352;28;20075;-74
2024/02/16 10:53:45;;;;;;;19.40;12.48;;;461.20;1433.60;;;;;;5085473;28;20119;-73
2024/02/16 10:56:10;;;;;;;19.63;12.38;;;461.10;1433.60;;;;;;5071011;28;20044;-74
2024/02/16 10:58:37;;;;;;;14.27;8.88;;;461.00;1459.20;;;;;;5071459;28;20024;-76
2024/02/16 11:01:13;;;;;;;14.50;9.25;;;486.40;1433.60;;;;;;5071164;28;20033;-72
2024/02/16 11:03:39;;;;;;;14.40;9.00;;;;;;;;;;5071776;28;20035;-75
2024/02/16 11:06:18;;;;;;;13.57;8.88;;;461.40;1536.00;;;;;;5079852;28;20036;-74
2024/02/16 11:08:50;;;;;;;18.27;10.48;;;460.80;1459.20;;;;;;5067453;28;20036;-73
2024/02/16 11:11:23;;;;;;;13.52;8.75;;;460.80;1459.20;;;;;;5057973;28;20040;-75
2024/02/16 11:13:49;;;;;;;12.85;8.45;;;461.10;1459.20;;;;;;5058557;28;20024;-73
2024/02/16 11:16:18;;;;;;;16.77;8.45;;;461.70;1408.00;;;;;;5053884;28;20094;-73
2024/02/16 11:18:49;;;;;;;16.60;8.60;;;486.90;1382.40;;;;;;5085789;28;20055;-73
2024/02/16 11:21:15;;;;;;;11.32;8.18;;;487.20;1331.20;;;;;;5090781;28;20063;-73
2024/02/16 11:23:42;;;;;;;13.27;7.88;;;486.90;1356.80;;;;;;5090847;28;20050;-73
2024/02/16 11:26:17;;;;;;;12.02;7.72;;;486.40;1382.40;;;;;;5090104;28;20455;-75
2024/02/16 11:28:43;;;;;;;12.90;8.10;;;461.50;1356.80;;;;;;5090744;28;20567;-74
2024/02/16 11:31:09;;;;;;;13.00;7.82;;;461.30;1433.60;;;;;;5082307;28;20028;-73
2024/02/16 11:33:45;;;;;;;10.52;6.72;;;486.50;1382.40;;;;;;5085363;28;20017;-74
2024/02/16 11:36:11;;;;;;;9.05;6.57;;;461.50;1408.00;;;;;;5070436;28;20295;-72
2024/02/16 11:38:37;;;;;;;10.77;6.90;;;486.90;1382.40;;;;;;5082379;28;20143;-72
2024/02/16 11:41:05;;;;;;;11.55;7.22;;;486.50;1382.40;;;;;;5080862;28;20499;-72
2024/02/16 11:43:34;;;;;;;10.10;6.32;;;512.00;1305.60;;;;;;5074673;28;20027;-72
2024/02/16 11:46:14;;;;;;;12.00;8.02;;;486.80;1331.20;;;;;;5077529;28;20062;-72
2024/02/16 11:48:40;;;;;;;10.50;6.82;;;461.50;1356.80;;;;;;5086387;28;20055;-72
2024/02/16 11:51:06;;;;;;;12.38;5.88;;;461.40;1356.80;;;;;;5073278;28;20058;-72
2024/02/16 11:53:32;;;;;;;10.32;6.68;;;461.50;1382.40;;;;;;5075085;28;20474;-74
2024/02/16 11:55:58;;;;;;;11.20;6.88;;;461.40;1382.40;;;;;;5075491;28;20139;-72
2024/02/16 11:58:24;;;;;;;10.88;6.50;;;461.10;1382.40;;;;;;5084925;28;20107;-73
2024/02/16 12:00:51;;;;;;;12.00;6.88;;;461.50;1408.00;;;;;;5082439;28;20050;-72
2024/02/16 12:03:24;;;;;;;10.73;5.82;;;461.00;1382.40;;;;;;5081991;28;20170;-72
2024/02/16 12:05:57;;;;;;;10.75;6.80;;;486.40;1356.80;;;;;;5078814;28;20032;-72
2024/02/16 12:08:23;;;;;;;18.75;10.40;;;486.50;1305.60;;;;;;5079782;28;20066;-72
2024/02/16 12:10:50;;;;;;;22.75;13.95;;;461.70;1331.20;;;;;;5086270;28;20688;-72
2024/02/16 12:13:22;;;;;;;11.25;7.95;;;461.70;1356.80;;;;;;5084665;28;20050;-72
2024/02/16 12:15:50;;;;;;;10.90;7.30;;;461.60;1331.20;;;;;;5093163;28;20020;-72
2024/02/16 12:18:20;;;;;;;12.30;6.47;;;486.60;1356.80;;;;;;5078961;28;20490;-72
2024/02/16 12:20:59;;;;;;;10.20;6.45;;;461.60;1382.40;;;;;;5086895;28;20032;-73
2024/02/16 12:23:25;;;;;;;12.18;7.20;;;486.40;1356.80;;;;;;5089850;28;20025;-72
2024/02/16 12:25:54;;;;;;;11.95;7.07;;;461.60;1382.40;;;;;;5080834;28;20537;-72
2024/02/16 12:28:28;;;;;;;44.45;15.38;;;461.70;1356.80;;;;;;5106170;28;20847;-73
2024/02/16 12:30:54;;;;;;;36.47;15.98;;;461.50;1382.40;;;;;;5108931;28;20092;-72